sensor_id;sensor_type;location;lat;lon;timestamp;pressure;altitude;pressure_sealevel;temperature;humidity
31183;BME280;17813;0.000;0.000;2023-03-11T00:01:24;97346.78;;;2.51;79.69
31183;BME280;17813;0.000;0.000;2023-03-11T00:03:51;97354.34;;;2.41;80.40
31183;BME280;17813;0.000;0.000;2023-03-11T00:06:18;97361.09;;;2.31;80.86
31183;BME280;17813;0.000;0.000;2023-03-11T00:08:45;97376.59;;;2.34;80.81
31183;BME280;17813;0.000;0.000;2023-03-11T00:11:13;97367.25;;;2.30;80.87
31183;BME280;17813;0.000;0.000;2023-03-11T00:13:40;97388.00;;;2.33;80.83
31183;BME280;17813;0.000;0.000;2023-03-11T00:16:07;97401.81;;;2.35;80.80
31183;BME280;17813;0.000;0.000;2023-03-11T00:18:34;97397.72;;;2.31;81.28
31183;BME280;17813;0.000;0.000;2023-03-11T02:21:24;75930.09;;;-142.58;86.71
31183;BME280;17813;0.000;0.000;2023-03-11T02:26:54;75948.41;;;-142.58;87.59
31183;BME280;17813;0.000;0.000;2023-03-11T02:29:22;75934.16;;;-142.58;87.62
31183;BME280;17813;0.000;0.000;2023-03-11T02:31:50;75948.41;;;-142.58;0.00
31183;BME280;17813;0.000;0.000;2023-03-11T02:34:25;75954.50;;;-142.58;87.17
31183;BME280;17813;0.000;0.000;2023-03-11T02:36:52;75964.66;;;-142.58;87.96
31183;BME280;17813;0.000;0.000;2023-03-11T02:39:33;75954.50;;;-142.58;88.33
31183;BME280;17813;0.000;0.000;2023-03-11T02:42:06;75972.81;;;-142.58;87.22
31183;BME280;17813;0.000;0.000;2023-03-11T02:44:36;75964.66;;;-142.58;87.70
31183;BME280;17813;0.000;0.000;2023-03-11T02:47:04;75974.84;;;-142.58;86.65
31183;BME280;17813;0.000;0.000;2023-03-11T02:49:32;75964.66;;;-142.58;86.70
31183;BME280;17813;0.000;0.000;2023-03-11T02:51:59;75966.69;;;-142.58;86.32
31183;BME280;17813;0.000;0.000;2023-03-11T02:54:26;75964.66;;;-142.58;85.97
31183;BME280;17813;0.000;0.000;2023-03-11T02:56:53;97821.78;;;-142.58;85.55
31183;BME280;17813;0.000;0.000;2023-03-11T02:59:20;75995.19;;;-142.58;85.56
31183;BME280;17813;0.000;0.000;2023-03-11T03:01:47;75989.06;;;-142.58;85.12
31183;BME280;17813;0.000;0.000;2023-03-11T03:04:14;75997.22;;;-142.58;85.13
31183;BME280;17813;0.000;0.000;2023-03-11T03:06:41;75997.22;;;-142.58;84.97
31183;BME280;17813;0.000;0.000;2023-03-11T03:09:07;75995.19;;;-142.58;85.56
31183;BME280;17813;0.000;0.000;2023-03-11T03:11:34;75997.22;;;-142.58;85.26
31183;BME280;17813;0.000;0.000;2023-03-11T03:14:01;97878.69;;;-142.58;83.75
31183;BME280;17813;0.000;0.000;2023-03-11T03:16:28;76003.44;;;-142.58;83.76
31183;BME280;17813;0.000;0.000;2023-03-11T03:18:55;76005.47;;;-142.58;84.24
31183;BME280;17813;0.000;0.000;2023-03-11T03:21:22;76011.44;;;-142.58;83.19
31183;BME280;17813;0.000;0.000;2023-03-11T03:23:49;76007.50;;;-142.58;83.03
31183;BME280;17813;0.000;0.000;2023-03-11T03:26:15;76015.53;;;-142.58;82.68
31183;BME280;17813;0.000;0.000;2023-03-11T03:28:42;76013.50;;;-142.58;0.00
31183;BME280;17813;0.000;0.000;2023-03-11T03:31:10;76013.50;;;-142.58;82.24
31183;BME280;17813;0.000;0.000;2023-03-11T03:33:38;76046.03;;;-142.58;81.13
31183;BME280;17813;0.000;0.000;2023-03-11T03:36:11;76037.91;;;-142.58;81.66
31183;BME280;17813;0.000;0.000;2023-03-11T03:38:38;76009.53;;;-142.58;95.96
31183;BME280;17813;0.000;0.000;2023-03-11T03:41:05;76064.34;;;-142.58;80.80
31183;BME280;17813;0.000;0.000;2023-03-11T03:43:34;76035.88;;;-142.58;81.38
31183;BME280;17813;0.000;0.000;2023-03-11T03:46:03;76031.78;;;-142.58;80.22
31183;BME280;17813;0.000;0.000;2023-03-11T03:48:30;76037.91;;;-142.58;80.08
31183;BME280;17813;0.000;0.000;2023-03-11T03:51:02;97951.97;;;-142.58;79.50
31183;BME280;17813;0.000;0.000;2023-03-11T03:53:30;76046.03;;;-142.58;79.50
31183;BME280;17813;0.000;0.000;2023-03-11T03:55:56;76058.25;;;-142.58;79.95
31183;BME280;17813;0.000;0.000;2023-03-11T03:58:24;76035.88;;;-142.58;79.60
31183;BME280;17813;0.000;0.000;2023-03-11T04:00:55;76056.19;;;-142.58;79.04
31183;BME280;17813;0.000;0.000;2023-03-11T04:03:23;76054.16;;;-142.58;78.41
31183;BME280;17813;0.000;0.000;2023-03-11T04:05:50;76066.38;;;-142.58;78.96
31183;BME280;17813;0.000;0.000;2023-03-11T04:08:18;76054.16;;;-142.58;78.66
31183;BME280;17813;0.000;0.000;2023-03-11T04:10:54;76066.38;;;-142.58;79.61
31183;BME280;17813;0.000;0.000;2023-03-11T04:13:21;76078.56;;;-142.58;79.63
31183;BME280;17813;0.000;0.000;2023-03-11T04:15:48;76076.53;;;-142.58;79.59
31183;BME280;17813;0.000;0.000;2023-03-11T04:18:18;76088.75;;;-142.58;79.91
31183;BME280;17813;0.000;0.000;2023-03-11T04:20:45;76092.81;;;-142.58;18.08
31183;BME280;17813;0.000;0.000;2023-03-11T04:23:12;76084.69;;;-142.58;79.08
31183;BME280;17813;0.000;0.000;2023-03-11T04:25:39;76092.81;;;-142.58;79.36
31183;BME280;17813;0.000;0.000;2023-03-11T04:28:06;76111.13;;;-142.58;79.69
31183;BME280;17813;0.000;0.000;2023-03-11T04:30:33;76105.03;;;-142.58;78.96
31183;BME280;17813;0.000;0.000;2023-03-11T04:33:00;76100.94;;;-142.58;78.88
31183;BME280;17813;0.000;0.000;2023-03-11T04:35:27;76107.06;;;-142.58;78.85
31183;BME280;17813;0.000;0.000;2023-03-11T04:37:54;76113.16;;;-142.58;78.65
31183;BME280;17813;0.000;0.000;2023-03-11T04:40:21;98040.31;;;-142.58;78.12
31183;BME280;17813;0.000;0.000;2023-03-11T04:42:48;76143.66;;;-142.58;0.00
31183;BME280;17813;0.000;0.000;2023-03-11T04:45:15;76141.63;;;-142.58;78.17
31183;BME280;17813;0.000;0.000;2023-03-11T04:47:47;76149.78;;;-142.58;78.37
31183;BME280;17813;0.000;0.000;2023-03-11T04:50:14;76141.63;;;-142.58;78.37
31183;BME280;17813;0.000;0.000;2023-03-11T04:52:44;76151.81;;;-142.58;77.42
31183;BME280;17813;0.000;0.000;2023-03-11T04:55:12;76159.94;;;-142.58;77.63
31183;BME280;17813;0.000;0.000;2023-03-11T04:57:40;76170.13;;;-142.58;77.33
31183;BME280;17813;0.000;0.000;2023-03-11T05:00:08;76178.25;;;-142.58;77.98
31183;BME280;17813;0.000;0.000;2023-03-11T05:02:38;76188.44;;;-142.58;77.20
31183;BME280;17813;0.000;0.000;2023-03-11T05:05:11;76186.38;;;-142.58;77.35
31183;BME280;17813;0.000;0.000;2023-03-11T05:07:38;76190.47;;;-142.58;76.86
31183;BME280;17813;0.000;0.000;2023-03-11T05:10:05;76192.50;;;-142.58;77.25
31183;BME280;17813;0.000;0.000;2023-03-11T05:12:36;76196.56;;;-142.58;77.47
31183;BME280;17813;0.000;0.000;2023-03-11T05:15:04;76192.50;;;-142.58;76.73
31183;BME280;17813;0.000;0.000;2023-03-11T05:17:31;76180.28;;;-142.58;76.91
31183;BME280;17813;0.000;0.000;2023-03-11T05:19:59;76192.50;;;-142.58;76.54
31183;BME280;17813;0.000;0.000;2023-03-11T07:22:19;76284.03;;;-142.58;73.01
31183;BME280;17813;0.000;0.000;2023-03-11T07:24:48;76288.09;;;-142.58;73.01
31183;BME280;17813;0.000;0.000;2023-03-11T07:27:15;76294.22;;;-142.58;73.02
31183;BME280;17813;0.000;0.000;2023-03-11T07:29:45;76294.22;;;-142.58;72.67
31183;BME280;17813;0.000;0.000;2023-03-11T07:32:11;76330.81;;;-142.58;73.25
31183;BME280;17813;0.000;0.000;2023-03-11T07:34:38;76294.22;;;-142.58;72.65
31183;BME280;17813;0.000;0.000;2023-03-11T07:37:08;76298.28;;;-142.58;71.56
31183;BME280;17813;0.000;0.000;2023-03-11T07:39:35;76310.47;;;-142.58;72.10
31183;BME280;17813;0.000;0.000;2023-03-11T07:42:07;76300.31;;;-142.58;72.42
31183;BME280;17813;0.000;0.000;2023-03-11T07:44:34;76320.66;;;-142.58;72.93
31183;BME280;17813;0.000;0.000;2023-03-11T07:47:07;76304.38;;;-142.58;72.02
31183;BME280;17813;0.000;0.000;2023-03-11T07:49:34;76308.44;;;-142.58;72.05
31183;BME280;17813;0.000;0.000;2023-03-11T07:52:01;76288.09;;;-142.58;72.29
31183;BME280;17813;0.000;0.000;2023-03-11T07:54:28;76294.22;;;-142.58;71.63
31183;BME280;17813;0.000;0.000;2023-03-11T07:56:55;76300.31;;;-142.58;72.01
31183;BME280;17813;0.000;0.000;2023-03-11T07:59:22;76294.22;;;-142.58;71.44
31183;BME280;17813;0.000;0.000;2023-03-11T08:01:49;76302.34;;;-142.58;72.30
31183;BME280;17813;0.000;0.000;2023-03-11T08:04:16;76308.44;;;-142.58;72.46
31183;BME280;17813;0.000;0.000;2023-03-11T08:06:46;76304.38;;;-142.58;71.86
31183;BME280;17813;0.000;0.000;2023-03-11T08:09:13;76310.47;;;-142.58;72.43
31183;BME280;17813;0.000;0.000;2023-03-11T08:11:40;76318.63;;;-142.58;71.99
31183;BME280;17813;0.000;0.000;2023-03-11T08:14:07;76306.41;;;-142.58;71.76
31183;BME280;17813;0.000;0.000;2023-03-11T08:16:34;76312.50;;;-142.58;70.83
31183;BME280;17813;0.000;0.000;2023-03-11T08:19:01;76306.41;;;-142.58;70.93
31183;BME280;17813;0.000;0.000;2023-03-11T08:21:32;76314.53;;;-142.58;71.24
31183;BME280;17813;0.000;0.000;2023-03-11T08:24:00;76300.44;;;-142.58;71.11
31183;BME280;17813;0.000;0.000;2023-03-11T08:26:28;76298.28;;;-142.58;71.25
31183;BME280;17813;0.000;0.000;2023-03-11T08:28:56;76288.09;;;-142.58;70.53
31183;BME280;17813;0.000;0.000;2023-03-11T08:31:25;76265.84;;;-142.58;70.90
31183;BME280;17813;0.000;0.000;2023-03-11T08:33:55;76249.44;;;-142.58;70.25
31183;BME280;17813;0.000;0.000;2023-03-11T08:36:23;76245.38;;;-142.58;70.24
31183;BME280;17813;0.000;0.000;2023-03-11T08:38:50;76267.88;;;-142.58;70.69
31183;BME280;17813;0.000;0.000;2023-03-11T08:41:17;76273.88;;;-142.58;70.22
31183;BME280;17813;0.000;0.000;2023-03-11T08:43:45;76271.81;;;-142.58;70.88
31183;BME280;17813;0.000;0.000;2023-03-11T08:48:47;76257.59;;;-142.58;70.45
31183;BME280;17813;0.000;0.000;2023-03-11T08:51:14;76233.19;;;-142.58;68.71
31183;BME280;17813;0.000;0.000;2023-03-11T08:53:42;76225.03;;;-142.58;68.72
31183;BME280;17813;0.000;0.000;2023-03-11T08:56:09;98449.28;;;-143.88;69.50
31183;BME280;17813;0.000;0.000;2023-03-11T08:58:36;76188.44;;;-142.58;69.28
31183;BME280;17813;0.000;0.000;2023-03-11T09:01:05;76166.06;;;-142.58;69.31
31183;BME280;17813;0.000;0.000;2023-03-11T09:03:36;76141.63;;;-142.58;67.92
31183;BME280;17813;0.000;0.000;2023-03-11T09:06:05;76159.94;;;-143.88;67.94
31183;BME280;17813;0.000;0.000;2023-03-11T09:08:33;76220.97;;;-142.58;67.67
31183;BME280;17813;0.000;0.000;2023-03-11T09:11:01;76178.25;;;-142.58;68.50
31183;BME280;17813;0.000;0.000;2023-03-11T09:13:28;76168.09;;;-142.58;67.67
31183;BME280;17813;0.000;0.000;2023-03-11T09:15:55;76168.09;;;-143.88;67.65
31183;BME280;17813;0.000;0.000;2023-03-11T09:18:24;76188.44;;;-142.58;67.93
31183;BME280;17813;0.000;0.000;2023-03-11T09:20:50;76117.22;;;-143.88;67.56
31183;BME280;17813;0.000;0.000;2023-03-11T10:22:05;76231.16;;;-142.58;65.53
31183;BME280;17813;0.000;0.000;2023-03-11T10:27:49;76298.28;;;-142.58;66.43
31183;BME280;17813;0.000;0.000;2023-03-11T10:33:20;76306.41;;;-142.58;66.97
31183;BME280;17813;0.000;0.000;2023-03-11T10:35:59;76304.38;;;-142.58;0.00
31183;BME280;17813;0.000;0.000;2023-03-11T10:38:30;76277.94;;;-142.58;66.97
31183;BME280;17813;0.000;0.000;2023-03-11T10:41:02;76275.91;;;-142.58;67.13
31183;BME280;17813;0.000;0.000;2023-03-11T10:43:44;76279.97;;;-142.58;65.96
31183;BME280;17813;0.000;0.000;2023-03-11T10:46:19;76288.09;;;-142.58;66.55
31183;BME280;17813;0.000;0.000;2023-03-11T10:48:47;76320.66;;;-142.58;66.21
31183;BME280;17813;0.000;0.000;2023-03-11T10:51:18;76328.78;;;-142.58;66.38
31183;BME280;17813;0.000;0.000;2023-03-11T10:53:51;76330.81;;;-142.58;66.94
31183;BME280;17813;0.000;0.000;2023-03-11T10:56:29;76330.81;;;-142.58;67.16
31183;BME280;17813;0.000;0.000;2023-03-11T10:58:57;76320.66;;;-142.58;66.97
31183;BME280;17813;0.000;0.000;2023-03-11T11:01:28;76314.53;;;-142.58;67.81
31183;BME280;17813;0.000;0.000;2023-03-11T11:03:58;76288.09;;;-142.58;67.44
31183;BME280;17813;0.000;0.000;2023-03-11T11:06:30;76271.81;;;-143.88;67.03
31183;BME280;17813;0.000;0.000;2023-03-11T11:09:15;76288.09;;;-142.58;65.78
31183;BME280;17813;0.000;0.000;2023-03-11T11:12:12;76009.53;;;-142.58;65.74
31183;BME280;17813;0.000;0.000;2023-03-11T11:14:49;76361.34;;;-142.58;66.80
31183;BME280;17813;0.000;0.000;2023-03-11T11:17:31;76343.03;;;-142.58;67.17
31183;BME280;17813;0.000;0.000;2023-03-11T11:20:02;76343.03;;;-142.58;67.43
31183;BME280;17813;0.000;0.000;2023-03-11T11:22:39;76338.97;;;-142.58;67.77
31183;BME280;17813;0.000;0.000;2023-03-11T11:25:34;76322.69;;;-142.58;67.54
31183;BME280;17813;0.000;0.000;2023-03-11T11:28:11;76381.69;;;-142.58;67.65
31183;BME280;17813;0.000;0.000;2023-03-11T11:31:05;76387.78;;;-142.58;68.18
31183;BME280;17813;0.000;0.000;2023-03-11T11:33:46;76402.03;;;-142.58;68.59
31183;BME280;17813;0.000;0.000;2023-03-11T11:36:15;76389.81;;;-142.58;68.86
31183;BME280;17813;0.000;0.000;2023-03-11T11:38:43;76389.94;;;-142.58;69.63
31183;BME280;17813;0.000;0.000;2023-03-11T11:41:16;76375.56;;;-142.58;70.36
31183;BME280;17813;0.000;0.000;2023-03-11T11:43:54;76361.34;;;-142.58;71.15
31183;BME280;17813;0.000;0.000;2023-03-11T11:46:40;76322.69;;;-142.58;69.90
31183;BME280;17813;0.000;0.000;2023-03-11T11:49:28;76314.53;;;-142.58;68.62
31183;BME280;17813;0.000;0.000;2023-03-11T11:52:20;76324.72;;;-142.58;69.52
31183;BME280;17813;0.000;0.000;2023-03-11T12:53:45;76314.53;;;-143.88;66.36
31183;BME280;17813;0.000;0.000;2023-03-11T12:56:27;76341.00;;;-143.88;65.89
31183;BME280;17813;0.000;0.000;2023-03-11T13:04:50;98660.81;;;4.66;64.43
31183;BME280;17813;0.000;0.000;2023-03-11T13:07:39;98670.25;;;4.70;64.57
31183;BME280;17813;0.000;0.000;2023-03-11T13:12:51;76229.09;;;-142.58;64.60
31183;BME280;17813;0.000;0.000;2023-03-11T13:21:02;76332.84;;;-142.58;63.61
31183;BME280;17813;0.000;0.000;2023-03-11T13:23:37;76355.22;;;-142.58;63.97
31183;BME280;17813;0.000;0.000;2023-03-11T13:26:28;76363.38;;;-142.58;65.42
31183;BME280;17813;0.000;0.000;2023-03-11T13:34:59;76326.75;;;-142.58;64.33
31183;BME280;17813;0.000;0.000;2023-03-11T13:37:39;98693.25;;;4.47;63.35
31183;BME280;17813;0.000;0.000;2023-03-11T13:40:30;98698.50;;;4.65;62.28
31183;BME280;17813;0.000;0.000;2023-03-11T13:43:29;98698.34;;;4.68;62.19
31183;BME280;17813;0.000;0.000;2023-03-11T13:46:13;98705.84;;;4.75;60.67
31183;BME280;17813;0.000;0.000;2023-03-11T13:48:47;98705.69;;;4.78;60.87
31183;BME280;17813;0.000;0.000;2023-03-11T13:51:43;98704.06;;;4.59;59.92
31183;BME280;17813;0.000;0.000;2023-03-11T13:54:21;98701.22;;;4.80;60.56
31183;BME280;17813;0.000;0.000;2023-03-11T13:57:00;98706.69;;;4.93;60.66
31183;BME280;17813;0.000;0.000;2023-03-11T13:59:29;98705.47;;;5.00;60.67
31183;BME280;17813;0.000;0.000;2023-03-11T14:02:00;98705.28;;;5.03;60.25
31183;BME280;17813;0.000;0.000;2023-03-11T14:04:35;98703.59;;;5.02;59.46
31183;BME280;17813;0.000;0.000;2023-03-11T14:07:24;98713.56;;;5.13;58.55
31183;BME280;17813;0.000;0.000;2023-03-11T14:10:07;98709.91;;;5.15;59.24
31183;BME280;17813;0.000;0.000;2023-03-11T14:12:34;98714.72;;;5.07;58.86
31183;BME280;17813;0.000;0.000;2023-03-11T14:15:04;98719.53;;;4.82;58.60
31183;BME280;17813;0.000;0.000;2023-03-11T14:17:32;98716.28;;;4.77;59.33
31183;BME280;17813;0.000;0.000;2023-03-11T14:20:15;98709.09;;;4.80;59.63
31183;BME280;17813;0.000;0.000;2023-03-11T14:22:47;98722.31;;;4.96;59.52
31183;BME280;17813;0.000;0.000;2023-03-11T14:27:53;98725.78;;;4.97;58.09
31183;BME280;17813;0.000;0.000;2023-03-11T14:30:23;98741.25;;;4.85;58.19
31183;BME280;17813;0.000;0.000;2023-03-11T14:33:00;98741.25;;;-143.88;58.19
31183;BME280;17813;0.000;0.000;2023-03-11T14:35:29;98748.72;;;4.76;58.76
31183;BME280;17813;0.000;0.000;2023-03-11T14:37:56;98747.81;;;4.77;58.92
31183;BME280;17813;0.000;0.000;2023-03-11T14:40:26;98749.19;;;4.84;59.25
31183;BME280;17813;0.000;0.000;2023-03-11T14:42:55;98753.22;;;4.74;59.21
31183;BME280;17813;0.000;0.000;2023-03-11T14:45:27;76251.63;;;-143.88;59.21
31183;BME280;17813;0.000;0.000;2023-03-11T14:50:43;76296.25;;;-143.88;58.51
31183;BME280;17813;0.000;0.000;2023-03-11T14:53:27;76343.03;;;-142.58;59.11
31183;BME280;17813;0.000;0.000;2023-03-11T14:56:02;76322.69;;;-143.88;59.87
31183;BME280;17813;0.000;0.000;2023-03-11T14:58:50;98773.00;;;4.45;58.66
31183;BME280;17813;0.000;0.000;2023-03-11T15:01:28;98773.88;;;4.45;58.63
31183;BME280;17813;0.000;0.000;2023-03-11T15:04:10;98774.16;;;4.39;57.67
31183;BME280;17813;0.000;0.000;2023-03-11T15:06:42;98774.16;;;4.39;58.28
31183;BME280;17813;0.000;0.000;2023-03-11T15:09:15;76314.53;;;-142.58;58.28
31183;BME280;17813;0.000;0.000;2023-03-11T15:11:51;76314.53;;;-143.88;58.44
31183;BME280;17813;0.000;0.000;2023-03-11T15:14:35;98789.41;;;4.50;57.59
31183;BME280;17813;0.000;0.000;2023-03-11T15:17:29;98786.44;;;4.20;57.95
31183;BME280;17813;0.000;0.000;2023-03-11T15:19:58;76349.13;;;-142.58;57.95
31183;BME280;17813;0.000;0.000;2023-03-11T15:22:40;76355.22;;;-143.88;59.02
31183;BME280;17813;0.000;0.000;2023-03-11T15:25:17;76373.53;;;-143.88;57.70
31183;BME280;17813;0.000;0.000;2023-03-11T15:27:46;76389.81;;;-143.88;58.34
31183;BME280;17813;0.000;0.000;2023-03-11T15:30:24;76389.81;;;-143.88;58.05
31183;BME280;17813;0.000;0.000;2023-03-11T15:32:51;98789.56;;;4.28;58.42
31183;BME280;17813;0.000;0.000;2023-03-11T15:35:30;98788.66;;;4.29;57.58
31183;BME280;17813;0.000;0.000;2023-03-11T15:38:17;98789.63;;;4.27;56.87
31183;BME280;17813;0.000;0.000;2023-03-11T15:40:57;76343.03;;;-143.88;56.87
31183;BME280;17813;0.000;0.000;2023-03-11T15:43:47;98786.09;;;4.09;57.63
31183;BME280;17813;0.000;0.000;2023-03-11T15:46:14;76363.38;;;-142.58;57.63
31183;BME280;17813;0.000;0.000;2023-03-11T15:48:42;76375.56;;;-142.58;58.22
31183;BME280;17813;0.000;0.000;2023-03-11T15:51:19;76375.56;;;-142.58;57.79
31183;BME280;17813;0.000;0.000;2023-03-11T15:53:46;76379.66;;;-142.58;57.07
31183;BME280;17813;0.000;0.000;2023-03-11T17:57:28;76918.78;;;-142.58;63.14
31183;BME280;17813;0.000;0.000;2023-03-11T17:59:55;98962.66;;;-142.58;63.65
31183;BME280;17813;0.000;0.000;2023-03-11T18:02:21;76926.91;;;-142.58;63.65
31183;BME280;17813;0.000;0.000;2023-03-11T18:04:50;76939.13;;;-142.58;64.67
31183;BME280;17813;0.000;0.000;2023-03-11T18:07:18;76945.22;;;-142.58;65.72
31183;BME280;17813;0.000;0.000;2023-03-11T18:09:51;76955.41;;;-142.58;100.00
31183;BME280;17813;0.000;0.000;2023-03-11T18:12:19;76973.72;;;-142.58;64.54
31183;BME280;17813;0.000;0.000;2023-03-11T18:14:49;76981.84;;;-142.58;65.70
31183;BME280;17813;0.000;0.000;2023-03-11T18:17:19;77000.16;;;-142.58;65.25
31183;BME280;17813;0.000;0.000;2023-03-11T18:19:59;42089.69;;;-142.58;65.69
31183;BME280;17813;0.000;0.000;2023-03-11T18:22:26;77020.50;;;-142.58;65.88
31183;BME280;17813;0.000;0.000;2023-03-11T18:24:53;77028.66;;;-142.58;9.62
31183;BME280;17813;0.000;0.000;2023-03-11T18:27:20;77038.81;;;-142.58;67.16
31183;BME280;17813;0.000;0.000;2023-03-11T18:29:47;77065.28;;;-142.58;68.53
31183;BME280;17813;0.000;0.000;2023-03-11T18:32:13;77065.28;;;-142.58;68.04
31183;BME280;17813;0.000;0.000;2023-03-11T18:34:41;77079.53;;;-142.58;67.66
31183;BME280;17813;0.000;0.000;2023-03-11T18:37:11;77101.91;;;-142.58;70.25
31183;BME280;17813;0.000;0.000;2023-03-11T18:39:41;77093.75;;;-142.58;68.30
31183;BME280;17813;0.000;0.000;2023-03-11T18:42:07;77087.66;;;-142.58;67.98
31183;BME280;17813;0.000;0.000;2023-03-11T18:44:34;77095.81;;;-142.58;68.08
31183;BME280;17813;0.000;0.000;2023-03-11T18:47:01;77097.84;;;-142.58;68.86
31183;BME280;17813;0.000;0.000;2023-03-11T18:49:28;77105.97;;;-142.58;68.35
31183;BME280;17813;0.000;0.000;2023-03-11T18:51:54;77112.06;;;-142.58;68.63
31183;BME280;17813;0.000;0.000;2023-03-11T18:54:22;77114.09;;;-142.58;68.81
31183;BME280;17813;0.000;0.000;2023-03-11T21:58:40;77384.75;;;-142.58;78.19
31183;BME280;17813;0.000;0.000;2023-03-11T22:01:08;77360.31;;;-142.58;78.03
31183;BME280;17813;0.000;0.000;2023-03-11T22:03:37;77372.53;;;-142.58;77.80
31183;BME280;17813;0.000;0.000;2023-03-11T22:06:09;77368.47;;;-142.58;76.84
31183;BME280;17813;0.000;0.000;2023-03-11T22:08:36;77374.69;;;-142.58;76.86
31183;BME280;17813;0.000;0.000;2023-03-11T22:11:10;77386.78;;;-142.58;77.03
31183;BME280;17813;0.000;0.000;2023-03-11T22:13:40;77392.88;;;-142.58;0.00
31183;BME280;17813;0.000;0.000;2023-03-11T22:16:07;77392.88;;;-142.58;78.34
31183;BME280;17813;0.000;0.000;2023-03-11T22:18:34;77401.03;;;-142.58;78.38
31183;BME280;17813;0.000;0.000;2023-03-11T22:21:01;77396.94;;;-142.58;78.09
31183;BME280;17813;0.000;0.000;2023-03-11T22:23:28;77403.06;;;-142.58;77.12
31183;BME280;17813;0.000;0.000;2023-03-11T22:25:55;77399.00;;;-142.58;77.75
31183;BME280;17813;0.000;0.000;2023-03-11T22:28:22;77401.03;;;-142.58;77.33
31183;BME280;17813;0.000;0.000;2023-03-11T22:30:50;77411.19;;;-142.58;77.74
31183;BME280;17813;0.000;0.000;2023-03-11T22:33:17;77407.25;;;-142.58;76.72
31183;BME280;17813;0.000;0.000;2023-03-11T22:35:53;77407.25;;;-142.58;77.09
31183;BME280;17813;0.000;0.000;2023-03-11T22:38:20;77407.13;;;-142.58;77.55
31183;BME280;17813;0.000;0.000;2023-03-11T22:40:47;77417.31;;;-142.58;77.85
31183;BME280;17813;0.000;0.000;2023-03-11T22:43:14;77423.53;;;-142.58;77.24
31183;BME280;17813;0.000;0.000;2023-03-11T22:45:43;77431.53;;;-142.58;78.10
31183;BME280;17813;0.000;0.000;2023-03-11T22:48:09;77435.75;;;-142.58;77.39
31183;BME280;17813;0.000;0.000;2023-03-11T22:50:43;77431.69;;;-142.58;77.49
31183;BME280;17813;0.000;0.000;2023-03-11T22:53:11;77447.81;;;-142.58;78.34
31183;BME280;17813;0.000;0.000;2023-03-11T22:55:42;77435.63;;;-142.58;78.84
31183;BME280;17813;0.000;0.000;2023-03-11T22:58:10;77437.78;;;-142.58;77.99
31183;BME280;17813;0.000;0.000;2023-03-11T23:00:42;77431.69;;;-142.58;78.73
31183;BME280;17813;0.000;0.000;2023-03-11T23:03:10;99081.38;;;-142.58;78.45
31183;BME280;17813;0.000;0.000;2023-03-11T23:05:38;77449.84;;;-142.58;79.38
31183;BME280;17813;0.000;0.000;2023-03-11T23:08:14;77437.78;;;-142.58;78.98
31183;BME280;17813;0.000;0.000;2023-03-11T23:10:45;77447.81;;;-142.58;79.13
31183;BME280;17813;0.000;0.000;2023-03-11T23:13:12;77447.81;;;-142.58;79.11
31183;BME280;17813;0.000;0.000;2023-03-11T23:15:42;77451.91;;;-142.58;79.26
31183;BME280;17813;0.000;0.000;2023-03-11T23:18:10;77462.06;;;-142.58;78.70
31183;BME280;17813;0.000;0.000;2023-03-11T23:20:39;77462.06;;;-142.58;78.92
31183;BME280;17813;0.000;0.000;2023-03-11T23:23:07;77472.38;;;-142.58;79.59
31183;BME280;17813;0.000;0.000;2023-03-11T23:25:38;77470.34;;;-142.58;78.70
31183;BME280;17813;0.000;0.000;2023-03-11T23:28:06;77472.25;;;-142.58;78.63
31183;BME280;17813;0.000;0.000;2023-03-11T23:30:33;77482.41;;;-142.58;79.46
31183;BME280;17813;0.000;0.000;2023-03-11T23:33:01;77486.50;;;-142.58;78.64
31183;BME280;17813;0.000;0.000;2023-03-11T23:35:29;77488.53;;;-142.58;79.03
31183;BME280;17813;0.000;0.000;2023-03-11T23:37:56;77486.50;;;-142.58;79.32
31183;BME280;17813;0.000;0.000;2023-03-11T23:40:23;77484.47;;;-142.58;78.97
31183;BME280;17813;0.000;0.000;2023-03-11T23:42:50;77484.47;;;-142.58;79.01
31183;BME280;17813;0.000;0.000;2023-03-11T23:45:18;77486.50;;;-142.58;78.73
31183;BME280;17813;0.000;0.000;2023-03-11T23:47:45;77488.53;;;-142.58;78.86
31183;BME280;17813;0.000;0.000;2023-03-11T23:50:12;77492.59;;;-142.58;79.49
31183;BME280;17813;0.000;0.000;2023-03-11T23:52:39;77492.59;;;-142.58;79.66
31183;BME280;17813;0.000;0.000;2023-03-11T23:55:06;77496.78;;;-142.58;79.62
31183;BME280;17813;0.000;0.000;2023-03-11T23:57:34;77502.91;;;-142.58;79.72
